プーケット の空港の天気 - METARとTAF

プーケット国際空港 ( VTSP / HKT ) - タイ プーケット県
飛行場実況気象(Metar)
観測時間10/20 23:00 ICT (10/20 16:00 UTC)
風向・風速静穏 0m/s
視程8000m
天気現象
少しの雲 雲底高度 610m
全天の4割程度の雲 雲底高度 3050m
気温24℃
湿度89%
気圧1014hPa
METARVTSP 201600Z 00000KT 8000 FEW020 SCT100 24/22 Q1014 NOSIG
過去の天気等 Google飛行場航空写真 Wunderground天気予報

過去48時間のMETAR

飛行場予報(TAF)
発表時間: 10/20 18:00 ICT (10/20 11:00 UTC)
予報対象時間: 20日19時 ICT ~ 22日1時 ICT
風向・風速不定 1m/s
視程8000m
全天の4割程度の雲 雲底高度 550m
全天の8割程度の雲 雲底高度 3050m
20日7時 ICT ~ 20日9時 ICT に徐々に
風向・風速西 3m/s
視程10km以上
21日11時 ICT ~ 21日17時 ICT に一時的に
風向・風速不定 8m/s 瞬間風速 15m/s
視程5000m
天気現象雷雨
少しの積乱雲 雲底高度 550m
全天の4割程度の雲 雲底高度 610m
全天の8割程度の雲 雲底高度 3050m
TAF VTSP 201100Z 2012/2118 VRB02KT 8000 SCT018 BKN100
BECMG 2000/2002 26006KT 9999
TEMPO 2104/2110 VRB15G30KT 5000 TSRA FEW018CB SCT020 BKN100